CheckWX is a tool to help pilots better visualize weather data.  It is not intended as a substitute for an official pre-flight weather briefing.

05:35:30 UTC

SCGE METAR
María Dolores Airport
Los Angeles, Chile
Current

8 hours ago

SCGE 162200Z 00000KT CAVOK 13/09 Q1018
Observed
Jun-16 @ 22:00 UTC
Visibility
10,000+ meters
Flight Rules
VFR
Cloud Levels
  • Clear skies
Temperature
13°C / 55°F
Dewpoint
C / 48°F
Humidity
77%
Altimeter
30.06" Hg
Pressure
1017.92 hPa
Previous

9 hours ago

SCGE 162100Z 00000KT CAVOK 15/07 Q1018
Observed
Jun-16 @ 21:00 UTC
Visibility
10,000+ meters
Flight Rules
VFR
Cloud Levels
  • Clear skies
Temperature
15°C / 59°F
Dewpoint
C / 45°F
Humidity
59%
Altimeter
30.06" Hg
Pressure
1017.92 hPa
Previous

10 hours ago

SCGE 162000Z 00000KT CAVOK 17/08 Q1018
Observed
Jun-16 @ 20:00 UTC
Visibility
10,000+ meters
Flight Rules
VFR
Cloud Levels
  • Clear skies
Temperature
17°C / 63°F
Dewpoint
C / 46°F
Humidity
56%
Altimeter
30.06" Hg
Pressure
1017.92 hPa